createdAt,value
2017-09-03T00:00:56.803Z,0
2017-09-03T00:01:56.834Z,0
2017-09-03T00:03:11.460Z,0
2017-09-03T00:03:56.845Z,0
2017-09-03T00:04:56.878Z,0
2017-09-03T00:05:56.887Z,0
2017-09-03T00:06:56.628Z,0
2017-09-03T00:07:56.638Z,0
2017-09-03T00:10:26.229Z,0
2017-09-03T00:11:11.620Z,0
2017-09-03T00:12:11.631Z,0
2017-09-03T00:12:57.057Z,0
2017-09-03T00:13:57.083Z,0
2017-09-03T00:14:57.112Z,0
2017-09-03T00:16:11.732Z,0
2017-09-03T00:16:57.149Z,0
2017-09-03T00:17:57.165Z,0
2017-09-03T00:18:57.194Z,0
2017-09-03T00:19:57.203Z,0
2017-09-03T00:22:11.913Z,0
2017-09-03T00:23:11.889Z,0
2017-09-03T00:23:57.295Z,0
2017-09-03T00:25:11.631Z,0
2017-09-03T00:25:56.729Z,0
2017-09-03T00:27:11.992Z,0
2017-09-03T00:27:57.379Z,0
2017-09-03T00:28:57.389Z,0
2017-09-03T00:29:57.129Z,0
2017-09-03T00:30:57.460Z,0
2017-09-03T00:31:57.479Z,0
2017-09-03T00:32:57.481Z,0
2017-09-03T00:33:57.229Z,0
2017-09-03T00:34:57.526Z,0
2017-09-03T00:35:57.260Z,0
2017-09-03T00:36:57.605Z,0
2017-09-03T00:37:57.284Z,0
2017-09-03T00:39:12.246Z,0
2017-09-03T00:39:57.339Z,0
2017-09-03T00:41:57.700Z,0
2017-09-03T00:42:57.696Z,0
2017-09-03T00:44:12.343Z,0
2017-09-03T00:44:57.800Z,0
2017-09-03T00:45:57.489Z,0
2017-09-03T00:46:57.782Z,0
2017-09-03T00:48:12.437Z,0
2017-09-03T00:48:57.839Z,0
2017-09-03T00:49:57.870Z,0
2017-09-03T00:50:57.888Z,0
2017-09-03T00:51:57.903Z,0
2017-09-03T00:52:57.619Z,0
2017-09-03T00:53:57.955Z,0
2017-09-03T00:54:57.667Z,0
2017-09-03T00:56:12.299Z,0
2017-09-03T00:57:12.618Z,0
2017-09-03T00:57:58.048Z,0
2017-09-03T00:58:58.059Z,0
2017-09-03T00:59:57.772Z,0
2017-09-03T01:00:58.097Z,0
2017-09-03T01:01:58.144Z,0
2017-09-03T01:02:58.150Z,0
2017-09-03T01:03:57.857Z,0
2017-09-03T01:04:58.184Z,0
2017-09-03T01:05:58.227Z,0
2017-09-03T01:06:57.618Z,0
2017-09-03T01:07:58.255Z,0
2017-09-03T01:08:58.255Z,0
2017-09-03T01:09:58.305Z,0
2017-09-03T01:10:58.311Z,0
2017-09-03T01:11:58.045Z,0
2017-09-03T01:13:12.667Z,0
2017-09-03T01:13:57.441Z,0
2017-09-03T01:14:58.081Z,0
2017-09-03T01:15:58.110Z,0
2017-09-03T01:16:58.441Z,0
2017-09-03T01:18:58.461Z,0
2017-09-03T01:19:58.514Z,0
2017-09-03T01:20:58.519Z,0
2017-09-03T01:21:58.568Z,0
2017-09-03T01:22:58.581Z,0
2017-09-03T01:23:58.609Z,0
2017-09-03T01:24:58.597Z,0
2017-09-03T01:25:58.625Z,0
2017-09-03T01:26:58.355Z,0
2017-09-03T01:27:58.695Z,0
2017-09-03T01:29:13.327Z,0
2017-09-03T01:29:58.403Z,0
2017-09-03T01:30:58.455Z,0
2017-09-03T01:31:58.756Z,0
2017-09-03T01:32:58.777Z,0
2017-09-03T01:33:58.818Z,0
2017-09-03T01:34:58.530Z,0
2017-09-03T01:35:58.867Z,0
2017-09-03T01:36:58.873Z,0
2017-09-03T01:38:13.518Z,0
2017-09-03T01:38:58.600Z,0
2017-09-03T01:41:58.686Z,0
2017-09-03T01:42:58.702Z,0
2017-09-03T01:43:59.033Z,0
2017-09-03T01:45:13.647Z,0
2017-09-03T01:46:59.082Z,0
2017-09-03T01:47:58.799Z,0
2017-09-03T01:48:59.130Z,0
2017-09-03T01:49:58.844Z,0
2017-09-03T01:50:58.547Z,0
2017-09-03T01:51:59.208Z,0
2017-09-03T01:52:59.218Z,0
2017-09-03T01:53:59.254Z,0
2017-09-03T01:54:59.268Z,0
2017-09-03T01:55:59.292Z,0
2017-09-03T01:56:59.304Z,0
2017-09-03T01:57:59.015Z,0
2017-09-03T01:58:59.414Z,0
2017-09-03T02:00:13.974Z,0
2017-09-03T02:00:59.395Z,0
2017-09-03T02:01:59.410Z,0
2017-09-03T02:02:59.428Z,0
2017-09-03T02:03:59.442Z,0
2017-09-03T02:04:59.490Z,0
2017-09-03T02:05:59.512Z,0
2017-09-03T02:06:59.533Z,0
2017-09-03T02:07:59.541Z,0
2017-09-03T02:08:59.565Z,0
2017-09-03T02:09:59.576Z,0
2017-09-03T02:11:59.617Z,0
2017-09-03T02:13:59.663Z,0
2017-09-03T02:14:59.702Z,0
2017-09-03T02:16:14.323Z,0
2017-09-03T02:17:14.345Z,0
2017-09-03T02:17:59.765Z,0
2017-09-03T02:19:14.383Z,0
2017-09-03T02:19:59.801Z,0
2017-09-03T02:20:59.504Z,0
2017-09-03T02:21:59.892Z,0
2017-09-03T02:23:14.464Z,0
2017-09-03T02:23:59.862Z,0
2017-09-03T02:24:59.921Z,0
2017-09-03T02:25:59.910Z,0
2017-09-03T02:26:59.951Z,0
2017-09-03T02:27:59.650Z,0
2017-09-03T02:28:59.992Z,0
2017-09-03T02:30:00.030Z,0
2017-09-03T02:31:00.043Z,0
2017-09-03T02:32:14.666Z,0
2017-09-03T02:32:59.755Z,0
2017-09-03T02:34:00.104Z,0
2017-09-03T02:35:14.467Z,0
2017-09-03T02:36:14.442Z,0
2017-09-03T02:36:59.844Z,0
2017-09-03T02:38:00.181Z,0
2017-09-03T02:38:59.878Z,0
2017-09-03T02:40:00.229Z,0
2017-09-03T02:41:00.232Z,0
2017-09-03T02:42:00.265Z,0
2017-09-03T02:42:59.975Z,0
2017-09-03T02:45:14.940Z,0
2017-09-03T02:46:00.368Z,0
2017-09-03T02:47:00.384Z,0
2017-09-03T02:48:15.013Z,0
2017-09-03T02:49:00.112Z,0
2017-09-03T02:50:00.118Z,0
2017-09-03T02:51:00.161Z,0
2017-09-03T02:52:00.157Z,0
2017-09-03T02:53:00.208Z,0
2017-09-03T02:56:00.243Z,0
2017-09-03T02:57:00.578Z,0
2017-09-03T02:57:59.994Z,0
2017-09-03T02:59:00.620Z,0
2017-09-03T03:00:00.703Z,0
2017-09-03T03:01:00.352Z,0
2017-09-03T03:02:00.694Z,0
2017-09-03T03:03:00.705Z,0
2017-09-03T03:04:15.356Z,0
2017-09-03T03:05:15.385Z,0
2017-09-03T03:06:00.163Z,0
2017-09-03T03:07:00.784Z,0
2017-09-03T03:08:00.819Z,0
2017-09-03T03:09:00.834Z,0
2017-09-03T03:10:00.875Z,0
2017-09-03T03:11:00.863Z,0
2017-09-03T03:12:00.586Z,0
2017-09-03T03:13:00.924Z,0
2017-09-03T03:14:00.937Z,0
2017-09-03T03:15:00.973Z,0
2017-09-03T03:16:00.990Z,0
2017-09-03T03:17:01.015Z,0
2017-09-03T03:18:01.019Z,0
2017-09-03T03:19:01.045Z,0
2017-09-03T03:20:15.673Z,0
2017-09-03T03:21:01.107Z,0
2017-09-03T03:22:15.704Z,0
2017-09-03T03:23:01.147Z,0
2017-09-03T03:24:01.159Z,0
2017-09-03T03:25:00.864Z,0
2017-09-03T03:26:15.819Z,0
2017-09-03T03:27:00.905Z,0
2017-09-03T03:28:01.246Z,0
2017-09-03T03:30:01.290Z,0
2017-09-03T03:31:01.003Z,0
2017-09-03T03:32:01.029Z,0
2017-09-03T03:33:01.033Z,0
2017-09-03T03:34:01.380Z,0
2017-09-03T03:35:15.986Z,0
2017-09-03T03:36:01.419Z,0
2017-09-03T03:38:01.448Z,0
2017-09-03T03:40:01.189Z,0
2017-09-03T03:41:01.535Z,0
2017-09-03T03:42:01.539Z,0
2017-09-03T03:43:01.568Z,0
2017-09-03T03:44:01.574Z,4
2017-09-03T03:45:01.620Z,4
2017-09-03T03:46:01.609Z,0
2017-09-03T03:47:01.647Z,0
2017-09-03T03:48:01.659Z,4
2017-09-03T03:49:01.684Z,4
2017-09-03T03:50:01.688Z,8
2017-09-03T03:51:01.721Z,4
2017-09-03T03:52:16.367Z,8
2017-09-03T03:53:01.764Z,4
2017-09-03T03:54:01.784Z,8
2017-09-03T03:55:01.496Z,8
2017-09-03T03:56:01.835Z,8
2017-09-03T03:57:01.552Z,8
2017-09-03T03:58:01.869Z,12
2017-09-03T03:59:01.901Z,16
2017-09-03T04:00:01.915Z,20
2017-09-03T04:01:16.552Z,20
2017-09-03T04:02:01.959Z,24
2017-09-03T04:03:01.968Z,24
2017-09-03T04:04:01.701Z,28
2017-09-03T04:05:02.001Z,32
2017-09-03T04:06:02.032Z,40
2017-09-03T04:07:16.666Z,44
2017-09-03T04:08:02.091Z,44
2017-09-03T04:09:01.789Z,48
2017-09-03T04:10:02.137Z,56
2017-09-03T04:11:02.161Z,56
2017-09-03T04:12:01.854Z,64
2017-09-03T04:13:01.554Z,72
2017-09-03T04:14:02.194Z,80
2017-09-03T04:15:02.238Z,88
2017-09-03T04:16:02.254Z,100
2017-09-03T04:17:16.883Z,116
2017-09-03T04:18:01.976Z,128
2017-09-03T04:19:02.322Z,144
2017-09-03T04:20:02.318Z,160
2017-09-03T04:21:02.368Z,184
2017-09-03T04:22:02.376Z,208
2017-09-03T04:23:31.666Z,252
2017-09-03T04:24:02.414Z,272
2017-09-03T04:25:17.060Z,324
2017-09-03T04:26:02.135Z,364
2017-09-03T04:27:02.178Z,416
2017-09-03T04:28:02.513Z,480
2017-09-03T04:29:02.514Z,544
2017-09-03T04:30:02.217Z,612
2017-09-03T04:31:02.249Z,688
2017-09-03T04:32:17.201Z,800
2017-09-03T04:33:02.606Z,868
2017-09-03T04:34:17.243Z,992
2017-09-03T04:35:17.281Z,1092
2017-09-03T04:36:02.356Z,1168
2017-09-03T04:37:02.690Z,1284
2017-09-03T04:38:17.324Z,1428
2017-09-03T04:39:17.349Z,1544
2017-09-03T04:40:02.755Z,1640
2017-09-03T04:41:02.752Z,1768
2017-09-03T04:42:17.098Z,1932
2017-09-03T04:43:02.202Z,2028
2017-09-03T04:44:02.521Z,2160
2017-09-03T04:45:02.566Z,2296
2017-09-03T04:46:02.555Z,2436
2017-09-03T04:47:02.894Z,2596
2017-09-03T04:48:02.910Z,2768
2017-09-03T04:49:02.957Z,2932
2017-09-03T04:50:02.650Z,3080
2017-09-03T04:51:02.983Z,3224
2017-09-03T04:52:03.004Z,3488
2017-09-03T04:53:03.013Z,3832
2017-09-03T04:54:02.736Z,4244
2017-09-03T04:55:32.290Z,4312
2017-09-03T04:56:03.090Z,4148
2017-09-03T04:57:03.117Z,4104
2017-09-03T04:58:02.831Z,4204
2017-09-03T04:59:03.167Z,4348
2017-09-03T05:00:03.159Z,4616
2017-09-03T05:01:02.889Z,5784
2017-09-03T05:02:02.918Z,8304
2017-09-03T05:03:02.937Z,10492
2017-09-03T05:04:03.266Z,6596
2017-09-03T05:05:02.954Z,5356
2017-09-03T05:07:03.327Z,5564
2017-09-03T05:08:03.378Z,5680
2017-09-03T05:09:03.364Z,5792
2017-09-03T05:10:32.613Z,5920
2017-09-03T05:12:03.426Z,6084
2017-09-03T05:13:03.475Z,6088
2017-09-03T05:14:18.081Z,6284
2017-09-03T05:15:03.515Z,6384
2017-09-03T05:16:03.531Z,7248
2017-09-03T05:17:03.525Z,11444
2017-09-03T05:18:03.544Z,11364
2017-09-03T05:19:03.601Z,7852
2017-09-03T05:20:03.605Z,6552
2017-09-03T05:21:03.002Z,6680
2017-09-03T05:22:03.661Z,6952
2017-09-03T05:23:03.692Z,7148
2017-09-03T05:24:03.371Z,7084
2017-09-03T05:25:03.726Z,6944
2017-09-03T05:26:03.753Z,6928
2017-09-03T05:27:03.769Z,6924
2017-09-03T05:28:03.774Z,6944
2017-09-03T05:29:03.184Z,6964
2017-09-03T05:30:03.824Z,7008
2017-09-03T05:31:03.231Z,7072
2017-09-03T05:32:03.890Z,7128
2017-09-03T05:33:03.899Z,7168
2017-09-03T05:34:03.927Z,7252
2017-09-03T05:35:03.990Z,7340
2017-09-03T05:36:03.956Z,7416
2017-09-03T05:37:03.967Z,7500
2017-09-03T05:38:03.703Z,7656
2017-09-03T05:39:04.036Z,8176
2017-09-03T05:40:18.651Z,9100
2017-09-03T05:41:04.077Z,9032
2017-09-03T05:42:18.387Z,8668
2017-09-03T05:43:04.131Z,8464
2017-09-03T05:44:04.129Z,8520
2017-09-03T05:45:03.855Z,8632
2017-09-03T05:46:04.192Z,8732
2017-09-03T05:47:04.216Z,8760
2017-09-03T05:48:04.245Z,8740
2017-09-03T05:49:03.936Z,8824
2017-09-03T05:50:04.274Z,9004
2017-09-03T05:51:04.279Z,9260
2017-09-03T05:52:19.116Z,9652
2017-09-03T05:53:04.027Z,9816
2017-09-03T05:54:04.366Z,9648
2017-09-03T05:55:04.386Z,9960
2017-09-03T05:56:04.093Z,11592
2017-09-03T05:58:33.674Z,18656
2017-09-03T05:59:04.466Z,19040
2017-09-03T06:00:04.502Z,15616
2017-09-03T06:01:04.528Z,15168
2017-09-03T06:02:04.561Z,16992
2017-09-03T06:03:04.546Z,15776
2017-09-03T06:04:04.593Z,13560
2017-09-03T06:05:19.216Z,26464
2017-09-03T06:06:04.637Z,31456
2017-09-03T06:07:04.668Z,37376
2017-09-03T06:08:19.300Z,33312
2017-09-03T06:09:04.718Z,46112
2017-09-03T06:10:04.732Z,50976
2017-09-03T06:11:04.444Z,46304
2017-09-03T06:12:19.086Z,40064
2017-09-03T06:13:04.818Z,40544
2017-09-03T06:14:19.435Z,32256
2017-09-03T06:15:04.852Z,22112
2017-09-03T06:16:19.478Z,32160
2017-09-03T06:17:04.899Z,33568
2017-09-03T06:18:19.531Z,33280
2017-09-03T06:19:04.966Z,34976
2017-09-03T06:20:04.989Z,32672
2017-09-03T06:22:04.720Z,26560
2017-09-03T06:23:05.039Z,28256
2017-09-03T06:24:05.083Z,25344
2017-09-03T06:25:05.116Z,24896
2017-09-03T06:26:05.132Z,23904
2017-09-03T06:27:19.752Z,19456
2017-09-03T06:28:19.792Z,20192
2017-09-03T06:29:19.815Z,22944
2017-09-03T06:30:19.853Z,14140
2017-09-03T06:32:05.296Z,18688
2017-09-03T06:33:04.695Z,16576
2017-09-03T06:34:05.369Z,20064
2017-09-03T06:35:05.368Z,21120
2017-09-03T06:36:05.375Z,15504
2017-09-03T06:37:05.414Z,15160
2017-09-03T06:38:05.109Z,18688
2017-09-03T06:39:05.475Z,18528
2017-09-03T06:40:05.481Z,21120
2017-09-03T06:41:05.205Z,21920
2017-09-03T06:42:04.926Z,24384
2017-09-03T06:43:20.175Z,22848
2017-09-03T06:44:20.192Z,22784
2017-09-03T06:45:20.231Z,25600
2017-09-03T06:46:05.635Z,26560
2017-09-03T06:48:05.384Z,25568
2017-09-03T06:49:05.409Z,21728
2017-09-03T06:50:05.725Z,20288
2017-09-03T06:51:05.446Z,16928
2017-09-03T06:52:20.089Z,17696
2017-09-03T06:53:05.482Z,16608
2017-09-03T06:55:05.872Z,15368
2017-09-03T06:57:05.938Z,18208
2017-09-03T06:58:05.680Z,18112
2017-09-03T06:59:05.658Z,16576
2017-09-03T07:00:05.666Z,16320
2017-09-03T07:01:05.714Z,16544
2017-09-03T07:02:20.660Z,18400
2017-09-03T07:03:05.742Z,20128
2017-09-03T07:04:05.779Z,25088
2017-09-03T07:05:06.109Z,27520
2017-09-03T07:06:20.783Z,20800
2017-09-03T07:07:06.149Z,23776
2017-09-03T07:08:05.902Z,23968
2017-09-03T07:09:06.228Z,27744
2017-09-03T07:10:05.918Z,34496
2017-09-03T07:11:05.975Z,36288
2017-09-03T07:12:06.299Z,37952
2017-09-03T07:13:06.012Z,35712
2017-09-03T07:14:06.030Z,34656
2017-09-03T07:15:06.362Z,38336
2017-09-03T07:16:06.403Z,31712
2017-09-03T07:17:21.036Z,42272
2017-09-03T07:18:06.456Z,42464
2017-09-03T07:19:06.474Z,45312
2017-09-03T07:20:06.507Z,47776
2017-09-03T07:22:06.535Z,53920
2017-09-03T07:23:21.197Z,54176
2017-09-03T07:24:06.586Z,57600
2017-09-03T07:25:06.646Z,62816
2017-09-03T07:26:06.661Z,60192
2017-09-03T07:27:06.064Z,59296
2017-09-03T07:28:06.691Z,61408
2017-09-03T07:29:06.430Z,60096
2017-09-03T07:31:06.804Z,64736
2017-09-03T07:32:06.834Z,66720
2017-09-03T07:33:21.458Z,60512
2017-09-03T07:34:06.896Z,53088
2017-09-03T07:35:21.509Z,52576
2017-09-03T07:36:06.941Z,52736
2017-09-03T07:37:21.589Z,53280
2017-09-03T07:38:06.994Z,53376
2017-09-03T07:39:07.039Z,51968
2017-09-03T07:40:07.063Z,50176
2017-09-03T07:42:21.791Z,36672
2017-09-03T07:43:07.165Z,36672
2017-09-03T07:44:06.898Z,43392
2017-09-03T07:45:06.914Z,43584
2017-09-03T07:46:21.852Z,50080
2017-09-03T07:47:07.277Z,51456
2017-09-03T07:48:07.356Z,47488
2017-09-03T07:49:21.960Z,24288
2017-09-03T07:50:07.371Z,37728
2017-09-03T07:51:07.400Z,29440
2017-09-03T07:52:07.125Z,25824
2017-09-03T07:53:07.136Z,24384
2017-09-03T07:54:07.494Z,38624
2017-09-03T07:55:07.495Z,45664
2017-09-03T07:56:07.252Z,44224
2017-09-03T07:57:07.552Z,38880
2017-09-03T07:58:07.615Z,38688
2017-09-03T07:59:06.694Z,45824
2017-09-03T08:00:07.642Z,48832
2017-09-03T08:01:07.677Z,38784
2017-09-03T08:02:07.714Z,45728
2017-09-03T08:03:07.483Z,45856
2017-09-03T08:05:22.107Z,48416
2017-09-03T08:06:07.839Z,49824
2017-09-03T08:07:22.164Z,49952
2017-09-03T08:08:07.892Z,48032
2017-09-03T08:09:07.907Z,50752
2017-09-03T08:10:07.937Z,49952
2017-09-03T08:11:07.992Z,37216
2017-09-03T08:12:08.005Z,35744
2017-09-03T08:13:08.057Z,46464
2017-09-03T08:14:08.051Z,56192
2017-09-03T08:15:08.110Z,43168
2017-09-03T08:16:22.751Z,40608
2017-09-03T08:17:07.837Z,51712
2017-09-03T08:18:08.188Z,53120
2017-09-03T08:19:08.214Z,50912
2017-09-03T08:20:22.864Z,48928
2017-09-03T08:21:08.292Z,44896
2017-09-03T08:23:08.351Z,34080
2017-09-03T08:24:08.352Z,46688
2017-09-03T08:25:08.409Z,42112
2017-09-03T08:26:08.122Z,46112
2017-09-03T08:27:23.065Z,37632
2017-09-03T08:29:08.205Z,42240
2017-09-03T08:30:08.241Z,40032
2017-09-03T08:31:08.280Z,41184
2017-09-03T08:32:08.607Z,40672
2017-09-03T08:33:08.659Z,41568
2017-09-03T08:34:08.666Z,39904
2017-09-03T08:35:08.403Z,38944
2017-09-03T08:36:23.345Z,30848
2017-09-03T08:37:08.433Z,26592
2017-09-03T08:38:08.810Z,25440
2017-09-03T08:39:08.833Z,25664
2017-09-03T08:40:08.856Z,25696
2017-09-03T08:41:08.896Z,26048
2017-09-03T08:42:08.907Z,26464
2017-09-03T08:43:08.935Z,26528
2017-09-03T08:44:08.991Z,26592
2017-09-03T08:45:09.008Z,26496
2017-09-03T08:46:08.732Z,26688
2017-09-03T08:47:09.061Z,26848
2017-09-03T08:48:09.116Z,27424
2017-09-03T08:49:09.125Z,28288
2017-09-03T08:50:09.142Z,28128
2017-09-03T08:52:23.837Z,21760
2017-09-03T08:53:09.257Z,23776
2017-09-03T08:54:09.298Z,27168
2017-09-03T08:55:23.945Z,23808
2017-09-03T08:56:09.012Z,22496
2017-09-03T08:57:09.400Z,16928
2017-09-03T08:58:08.787Z,19584
2017-09-03T08:59:09.427Z,20800
2017-09-03T09:00:09.148Z,17824
2017-09-03T09:01:09.199Z,15620
2017-09-03T09:02:08.888Z,15160
2017-09-03T09:03:24.177Z,15132
2017-09-03T09:04:09.603Z,14572
2017-09-03T09:05:09.319Z,13872
2017-09-03T09:07:09.347Z,13888
2017-09-03T09:08:24.319Z,13748
2017-09-03T09:09:09.728Z,13452
2017-09-03T09:10:24.430Z,12068
2017-09-03T09:11:09.477Z,11104
2017-09-03T09:12:09.833Z,10244
2017-09-03T09:15:09.590Z,9460
2017-09-03T09:16:09.931Z,9928
2017-09-03T09:17:09.969Z,10456
2017-09-03T09:18:10.004Z,10816
2017-09-03T09:19:10.024Z,11056
2017-09-03T09:20:10.036Z,11244
2017-09-03T09:21:10.070Z,11432
2017-09-03T09:23:24.437Z,12204
2017-09-03T09:24:24.761Z,12352
2017-09-03T09:25:24.791Z,13256
2017-09-03T09:26:10.254Z,13340
2017-09-03T09:27:09.911Z,12576
2017-09-03T09:28:10.283Z,12404
2017-09-03T09:29:10.293Z,12428
2017-09-03T09:30:10.326Z,12500
2017-09-03T09:31:10.331Z,12900
2017-09-03T09:32:10.386Z,12864
2017-09-03T09:33:10.384Z,13012
2017-09-03T09:34:10.441Z,14036
2017-09-03T09:35:10.141Z,13544
2017-09-03T09:36:10.484Z,13832
2017-09-03T09:37:10.198Z,13676
2017-09-03T09:38:10.228Z,13500
2017-09-03T09:39:10.561Z,13628
2017-09-03T09:40:25.200Z,13576
2017-09-03T09:41:10.622Z,13676
2017-09-03T09:42:24.950Z,13740
2017-09-03T09:43:10.679Z,13708
2017-09-03T09:44:10.069Z,13552
2017-09-03T09:45:10.441Z,13492
2017-09-03T09:46:10.752Z,13680
2017-09-03T09:47:10.788Z,13916
2017-09-03T09:48:10.502Z,13556
2017-09-03T09:49:25.453Z,12972
2017-09-03T09:50:10.241Z,12840
2017-09-03T09:51:25.490Z,12800
2017-09-03T09:52:25.527Z,12572
2017-09-03T09:53:10.941Z,12716
2017-09-03T09:55:25.598Z,14016
2017-09-03T09:56:10.697Z,13472
2017-09-03T09:57:25.667Z,13736
2017-09-03T09:58:11.087Z,13992
2017-09-03T09:59:11.106Z,14556
2017-09-03T10:01:11.173Z,19168
2017-09-03T10:02:11.187Z,20960
2017-09-03T10:03:11.232Z,22816
2017-09-03T10:04:11.273Z,22368
2017-09-03T10:05:11.283Z,18080
2017-09-03T10:06:11.318Z,17024
2017-09-03T10:07:11.311Z,16320
2017-09-03T10:08:25.983Z,16360
2017-09-03T10:09:25.665Z,15564
2017-09-03T10:10:11.423Z,15032
2017-09-03T10:11:11.109Z,14164
2017-09-03T10:12:11.158Z,13872
2017-09-03T10:13:11.192Z,13408
2017-09-03T10:14:11.212Z,13512
2017-09-03T10:15:11.558Z,13108
2017-09-03T10:16:11.228Z,15372
2017-09-03T10:17:11.602Z,11828
2017-09-03T10:18:11.616Z,11620
2017-09-03T10:19:11.693Z,12024
2017-09-03T10:20:11.674Z,13012
2017-09-03T10:21:11.691Z,13476
2017-09-03T10:22:11.740Z,11644
2017-09-03T10:23:11.778Z,12916
2017-09-03T10:24:11.796Z,11788
2017-09-03T10:25:11.802Z,12088
2017-09-03T10:26:11.820Z,12400
2017-09-03T10:27:26.495Z,16216
2017-09-03T10:28:11.896Z,15216
2017-09-03T10:29:11.936Z,15032
2017-09-03T10:30:11.639Z,16100
2017-09-03T10:31:11.995Z,14288
2017-09-03T10:32:12.000Z,12076
2017-09-03T10:33:12.026Z,12400
2017-09-03T10:34:12.068Z,14444
2017-09-03T10:35:12.091Z,17504
2017-09-03T10:36:12.122Z,14852
2017-09-03T10:37:12.141Z,12468
2017-09-03T10:38:12.216Z,12336
2017-09-03T10:39:26.800Z,14552
2017-09-03T10:40:11.914Z,16356
2017-09-03T10:41:12.250Z,13880
2017-09-03T10:42:11.660Z,16332
2017-09-03T10:43:26.919Z,17376
2017-09-03T10:44:12.323Z,17344
2017-09-03T10:45:12.344Z,12992
2017-09-03T10:46:12.389Z,15184
2017-09-03T10:47:12.088Z,13512
2017-09-03T10:48:12.449Z,13872
2017-09-03T10:49:11.832Z,12320
2017-09-03T10:50:12.509Z,11744
2017-09-03T10:51:12.521Z,11748
2017-09-03T10:52:12.554Z,12312
2017-09-03T10:53:26.880Z,12724
2017-09-03T10:54:12.597Z,13224
2017-09-03T10:55:12.619Z,13452
2017-09-03T10:56:27.254Z,11916
2017-09-03T10:57:12.688Z,12904
2017-09-03T10:58:12.076Z,14500
2017-09-03T10:59:27.446Z,11948
2017-09-03T11:00:12.755Z,10360
2017-09-03T11:01:12.795Z,10236
2017-09-03T11:03:12.820Z,12664
2017-09-03T11:04:12.877Z,12304
2017-09-03T11:06:12.625Z,11704
2017-09-03T11:07:12.944Z,11492
2017-09-03T11:08:12.652Z,10992
2017-09-03T11:09:27.296Z,10844
2017-09-03T11:10:12.717Z,9624
2017-09-03T11:11:12.739Z,10600
2017-09-03T11:12:12.758Z,8516
2017-09-03T11:13:12.788Z,8468
2017-09-03T11:14:12.810Z,10224
2017-09-03T11:15:27.760Z,9444
2017-09-03T11:16:27.803Z,8700
2017-09-03T11:17:12.575Z,9824
2017-09-03T11:18:13.236Z,9972
2017-09-03T11:19:12.952Z,9984
2017-09-03T11:20:13.281Z,10016
2017-09-03T11:21:13.318Z,10132
2017-09-03T11:22:13.046Z,10292
2017-09-03T11:23:13.369Z,10328
2017-09-03T11:24:28.001Z,10492
2017-09-03T11:25:13.427Z,10792
2017-09-03T11:26:13.128Z,11044
2017-09-03T11:27:13.467Z,10992
2017-09-03T11:28:13.491Z,11180
2017-09-03T11:30:27.863Z,11888
2017-09-03T11:31:13.562Z,11996
2017-09-03T11:32:13.612Z,11984
2017-09-03T11:33:13.612Z,11716
2017-09-03T11:34:13.338Z,11104
2017-09-03T11:35:13.676Z,9952
2017-09-03T11:36:13.725Z,7160
2017-09-03T11:37:13.732Z,6408
2017-09-03T11:38:13.742Z,5920
2017-09-03T11:39:13.790Z,5524
2017-09-03T11:40:13.501Z,5396
2017-09-03T11:41:27.813Z,5328
2017-09-03T11:42:13.891Z,5348
2017-09-03T11:43:13.268Z,5360
2017-09-03T11:44:13.918Z,5280
2017-09-03T11:45:13.945Z,5280
2017-09-03T11:46:13.670Z,5364
2017-09-03T11:47:13.688Z,5440
2017-09-03T11:48:13.711Z,5508
2017-09-03T11:49:14.063Z,5636
2017-09-03T11:50:14.048Z,5796
2017-09-03T11:51:13.788Z,5964
2017-09-03T11:52:13.812Z,6084
2017-09-03T11:53:13.855Z,6160
2017-09-03T11:54:13.881Z,6248
2017-09-03T11:55:13.879Z,6348
2017-09-03T11:56:13.933Z,6464
2017-09-03T11:57:14.253Z,6588
2017-09-03T11:58:14.279Z,6664
2017-09-03T11:59:14.322Z,6660
2017-09-03T12:00:14.016Z,6592
2017-09-03T12:01:28.983Z,6416
2017-09-03T12:02:28.995Z,6224
2017-09-03T12:03:14.107Z,6180
2017-09-03T12:04:14.454Z,6232
2017-09-03T12:05:14.148Z,6368
2017-09-03T12:06:14.469Z,6352
2017-09-03T12:08:14.227Z,5988
2017-09-03T12:09:14.578Z,6008
2017-09-03T12:10:14.578Z,6452
2017-09-03T12:11:14.310Z,5972
2017-09-03T12:12:14.654Z,6152
2017-09-03T12:13:14.381Z,6088
2017-09-03T12:14:14.721Z,6272
2017-09-03T12:15:14.408Z,6148
2017-09-03T12:16:14.433Z,6068
2017-09-03T12:17:14.753Z,5616
2017-09-03T12:18:29.416Z,5348
2017-09-03T12:19:29.411Z,5492
2017-09-03T12:20:14.547Z,6380
2017-09-03T12:21:29.477Z,6696
2017-09-03T12:22:14.901Z,6628
2017-09-03T12:23:29.529Z,6588
2017-09-03T12:24:14.329Z,5776
2017-09-03T12:25:14.983Z,6100
2017-09-03T12:26:15.002Z,6496
2017-09-03T12:28:15.065Z,7000
2017-09-03T12:29:14.780Z,7464
2017-09-03T12:30:15.092Z,6840
2017-09-03T12:31:14.820Z,6936
2017-09-03T12:32:15.162Z,6960
2017-09-03T12:33:15.206Z,7320
2017-09-03T12:34:29.813Z,7712
2017-09-03T12:35:15.228Z,7824
2017-09-03T12:36:15.230Z,7784
2017-09-03T12:37:15.310Z,7648
2017-09-03T12:38:29.930Z,7524
2017-09-03T12:39:15.370Z,7488
2017-09-03T12:40:15.047Z,7384
2017-09-03T12:41:29.997Z,6988
2017-09-03T12:42:15.113Z,6680
2017-09-03T12:43:30.048Z,6228
2017-09-03T12:44:15.154Z,5996
2017-09-03T12:45:15.189Z,5696
2017-09-03T12:46:15.499Z,5408
2017-09-03T12:48:29.856Z,4988
2017-09-03T12:49:15.635Z,4860
2017-09-03T12:51:15.648Z,4404
2017-09-03T12:52:29.979Z,4172
2017-09-03T12:53:15.071Z,4152
2017-09-03T12:54:15.105Z,4252
2017-09-03T12:56:15.781Z,4640
2017-09-03T12:57:15.789Z,4808
2017-09-03T12:58:15.541Z,5036
2017-09-03T12:59:15.858Z,5204
2017-09-03T13:00:30.491Z,5280
2017-09-03T13:01:15.908Z,5244
2017-09-03T13:02:15.611Z,5260
2017-09-03T13:03:15.627Z,5376
2017-09-03T13:04:15.990Z,5528
2017-09-03T13:05:30.613Z,5700
2017-09-03T13:07:15.773Z,5888
2017-09-03T13:08:15.452Z,6228
2017-09-03T13:09:16.119Z,6344
2017-09-03T13:10:16.155Z,6564
2017-09-03T13:11:16.189Z,6776
2017-09-03T13:12:15.871Z,7316
2017-09-03T13:13:16.223Z,7548
2017-09-03T13:14:15.930Z,8272
2017-09-03T13:15:16.285Z,7136
2017-09-03T13:16:30.901Z,7076
2017-09-03T13:17:16.310Z,6996
2017-09-03T13:18:16.015Z,6848
2017-09-03T13:19:16.035Z,6700
2017-09-03T13:20:16.395Z,6528
2017-09-03T13:21:16.089Z,6396
2017-09-03T13:22:16.470Z,6296
2017-09-03T13:23:16.479Z,6220
2017-09-03T13:24:31.099Z,6224
2017-09-03T13:25:16.210Z,6252
2017-09-03T13:26:16.532Z,6264
2017-09-03T13:28:16.579Z,6196
2017-09-03T13:29:16.633Z,6156
2017-09-03T13:30:16.634Z,6180
2017-09-03T13:31:16.686Z,6276
2017-09-03T13:32:16.433Z,6452
2017-09-03T13:33:16.736Z,6632
2017-09-03T13:34:16.723Z,6792
2017-09-03T13:35:16.793Z,6884
2017-09-03T13:36:16.785Z,6904
2017-09-03T13:37:31.130Z,6880
2017-09-03T13:38:16.855Z,6840
2017-09-03T13:39:16.896Z,6736
2017-09-03T13:40:16.912Z,6588
2017-09-03T13:41:16.922Z,6396
2017-09-03T13:42:16.944Z,6188
2017-09-03T13:43:31.635Z,5968
2017-09-03T13:44:31.612Z,5804
2017-09-03T13:45:17.053Z,5648
2017-09-03T13:46:17.035Z,5432
2017-09-03T13:48:17.095Z,5012
2017-09-03T13:49:16.818Z,4848
2017-09-03T13:50:17.157Z,4732
2017-09-03T13:52:17.218Z,4620
2017-09-03T13:53:31.535Z,4608
2017-09-03T13:54:16.961Z,4592
2017-09-03T13:55:17.272Z,4576
2017-09-03T13:56:31.918Z,4600
2017-09-03T13:57:17.351Z,4644
2017-09-03T13:58:17.371Z,4696
2017-09-03T13:59:17.417Z,4760
2017-09-03T14:00:17.420Z,4776
2017-09-03T14:01:17.132Z,4888
2017-09-03T14:02:32.077Z,5048
2017-09-03T14:03:17.153Z,5232
2017-09-03T14:04:17.197Z,5488
2017-09-03T14:05:17.222Z,6484
2017-09-03T14:07:17.595Z,6432
2017-09-03T14:08:17.303Z,6528
2017-09-03T14:09:32.240Z,6356
2017-09-03T14:10:17.646Z,6064
2017-09-03T14:11:17.377Z,5444
2017-09-03T14:12:17.443Z,5744
2017-09-03T14:13:17.156Z,5500
2017-09-03T14:14:17.471Z,5280
2017-09-03T14:15:32.400Z,5388
2017-09-03T14:16:17.194Z,5988
2017-09-03T14:17:17.517Z,5940
2017-09-03T14:18:17.855Z,6228
2017-09-03T14:19:17.596Z,6620
2017-09-03T14:20:32.540Z,6296
2017-09-03T14:21:17.636Z,5588
2017-09-03T14:23:17.383Z,5344